Time;durP1;ratioP1;P1;durP2;ratioP2;P2;SDS_P1;SDS_P2;PMS_P1;PMS_P2;Temp;Humidity;BMP_temperature;BMP_pressure;BME280_temperature;BME280_humidity;BME280_pressure;Samples;Min_cycle;Max_cycle;Signal;HPM_P1;HPM_P2
2022/04/11 00:00:33;;;;;;;2.42;1.45;;;10.70;51.10;;;;;;5023551;28;20096;-91
2022/04/11 00:02:59;;;;;;;2.00;1.40;;;10.70;51.10;;;;;;5034961;28;20033;-89
2022/04/11 00:05:25;;;;;;;2.03;1.40;;;10.70;50.90;;;;;;5038705;28;20473;-90
2022/04/11 00:07:50;;;;;;;1.85;1.65;;;10.70;51.20;;;;;;5033440;28;20030;-89
2022/04/11 00:10:16;;;;;;;2.40;1.50;;;10.70;51.10;;;;;;5018534;28;20288;-89
2022/04/11 00:12:42;;;;;;;1.48;1.10;;;10.60;51.20;;;;;;5050745;28;20053;-90
2022/04/11 00:15:09;;;;;;;1.67;1.25;;;10.60;51.30;;;;;;5018914;28;20026;-89
2022/04/11 00:17:35;;;;;;;3.45;1.52;;;10.60;51.40;;;;;;5018163;28;20057;-89
2022/04/11 00:20:01;;;;;;;2.05;1.40;;;10.60;51.50;;;;;;5018759;28;20398;-91
2022/04/11 00:22:27;;;;;;;3.15;1.35;;;10.50;51.70;;;;;;5018773;28;20130;-90
2022/04/11 00:24:53;;;;;;;2.72;1.88;;;10.50;51.90;;;;;;5018650;28;20037;-89
2022/04/11 00:27:19;;;;;;;3.20;1.40;;;10.50;51.90;;;;;;5018226;28;20029;-91
2022/04/11 00:29:45;;;;;;;1.95;1.40;;;10.50;52.00;;;;;;5018835;28;20080;-91
2022/04/11 00:32:11;;;;;;;1.23;1.13;;;10.50;52.00;;;;;;5009907;28;20096;-90
2022/04/11 00:34:36;;;;;;;1.08;0.98;;;10.40;52.30;;;;;;4999261;28;20497;-90
2022/04/11 00:37:02;;;;;;;1.65;1.33;;;10.40;52.50;;;;;;5030656;28;20026;-90
2022/04/11 00:39:28;;;;;;;2.63;1.42;;;10.30;52.70;;;;;;4998967;28;20031;-89
2022/04/11 00:41:54;;;;;;;1.80;1.40;;;10.30;52.70;;;;;;4999376;28;20026;-89
2022/04/11 00:44:19;;;;;;;1.90;1.60;;;10.40;52.70;;;;;;5030475;28;20413;-90
2022/04/11 00:46:45;;;;;;;3.22;2.03;;;10.30;52.90;;;;;;4999649;28;20026;-89
2022/04/11 00:49:11;;;;;;;2.08;1.50;;;10.30;53.20;;;;;;5017621;28;20104;-89
2022/04/11 00:51:38;;;;;;;1.95;1.48;;;10.30;53.50;;;;;;5018239;28;20033;-89
2022/04/11 00:54:04;;;;;;;1.60;1.45;;;10.30;53.40;;;;;;5017889;28;20060;-88
2022/04/11 00:56:30;;;;;;;1.05;0.95;;;10.30;53.30;;;;;;5017879;28;20057;-89
2022/04/11 00:59:00;;;;;;;1.98;1.52;;;10.30;53.30;;;;;;5017170;28;20054;-89
2022/04/11 01:01:25;;;;;;;3.13;1.50;;;10.30;53.70;;;;;;5018014;28;20032;-89
2022/04/11 01:03:51;;;;;;;2.05;1.30;;;10.30;53.50;;;;;;5017568;28;20030;-90
2022/04/11 01:06:17;;;;;;;2.45;1.83;;;10.20;53.50;;;;;;5017315;28;20377;-88
2022/04/11 01:08:43;;;;;;;2.13;1.65;;;10.30;53.40;;;;;;5018017;28;20029;-90
2022/04/11 01:11:09;;;;;;;3.78;1.35;;;10.20;53.40;;;;;;5017441;28;20022;-91
2022/04/11 01:13:34;;;;;;;2.08;1.70;;;10.20;53.50;;;;;;4998316;28;20031;-89
2022/04/11 01:16:03;;;;;;;1.50;1.35;;;10.20;53.20;;;;;;4998205;28;20033;-89
2022/04/11 01:18:33;;;;;;;3.53;1.65;;;10.30;53.10;;;;;;4998267;28;20030;-90
2022/04/11 01:20:58;;;;;;;3.22;1.55;;;10.30;53.20;;;;;;4998842;28;20038;-90
2022/04/11 01:23:24;;;;;;;2.00;1.20;;;10.20;53.30;;;;;;4997297;28;20038;-90
2022/04/11 01:25:52;;;;;;;2.58;1.50;;;10.20;53.40;;;;;;5015235;28;20040;-89
2022/04/11 01:28:19;;;;;;;3.33;1.50;;;10.20;53.60;;;;;;5017735;28;20459;-91
2022/04/11 01:30:45;;;;;;;2.03;1.30;;;10.20;53.70;;;;;;5017093;28;20026;-90
2022/04/11 01:33:19;;;;;;;2.08;1.45;;;10.20;53.80;;;;;;5017569;28;20385;-88
2022/04/11 01:35:46;;;;;;;1.90;1.40;;;10.00;54.20;;;;;;5017600;28;20374;-90
2022/04/11 01:38:12;;;;;;;2.13;1.83;;;10.00;54.10;;;;;;5014272;28;20516;-91
2022/04/11 01:40:45;;;;;;;2.58;1.48;;;10.00;54.10;;;;;;4996228;28;20034;-91
2022/04/11 01:43:11;;;;;;;2.20;1.77;;;10.00;54.20;;;;;;4995832;28;20035;-89
2022/04/11 01:45:37;;;;;;;3.00;1.63;;;10.00;54.50;;;;;;5010634;28;20118;-90
2022/04/11 01:48:03;;;;;;;2.40;1.48;;;10.00;54.10;;;;;;5015730;28;20080;-91
2022/04/11 01:50:28;;;;;;;4.20;2.05;;;10.00;54.20;;;;;;5015643;28;20062;-89
2022/04/11 01:52:54;;;;;;;4.00;1.75;;;10.00;54.20;;;;;;5017339;28;20579;-89
2022/04/11 01:55:19;;;;;;;2.55;1.70;;;10.10;54.30;;;;;;4999198;28;20068;-90
2022/04/11 01:57:45;;;;;;;2.72;1.63;;;10.10;54.20;;;;;;4997046;28;20034;-90
2022/04/11 02:00:12;;;;;;;2.63;1.50;;;10.00;54.40;;;;;;5007306;28;20053;-89
2022/04/11 02:02:37;;;;;;;2.33;1.65;;;9.90;54.70;;;;;;5048499;28;20420;-90
2022/04/11 02:05:03;;;;;;;2.25;2.00;;;9.90;54.70;;;;;;5016777;28;20022;-91
2022/04/11 02:07:29;;;;;;;3.40;1.83;;;9.90;54.80;;;;;;5017037;28;20602;-89
2022/04/11 02:09:54;;;;;;;1.15;1.05;;;9.90;54.80;;;;;;5013040;28;20113;-89
2022/04/11 02:12:20;;;;;;;5.32;1.92;;;9.90;54.90;;;;;;4997060;28;20041;-90
2022/04/11 02:14:45;;;;;;;1.85;1.50;;;9.80;54.90;;;;;;4996775;28;20022;-89
2022/04/11 02:17:11;;;;;;;1.70;1.60;;;9.80;55.20;;;;;;5038181;28;20061;-90
2022/04/11 02:19:37;;;;;;;5.18;1.73;;;9.80;55.20;;;;;;5016328;28;20032;-89
2022/04/11 02:22:02;;;;;;;3.88;1.92;;;9.80;55.10;;;;;;5048116;28;20030;-90
2022/04/11 02:24:28;;;;;;;2.78;1.88;;;9.80;55.20;;;;;;5001787;28;20037;-89
2022/04/11 02:26:54;;;;;;;2.58;1.80;;;9.80;55.20;;;;;;4996489;28;20374;-88
2022/04/11 02:29:19;;;;;;;4.68;1.80;;;9.80;55.10;;;;;;4998742;28;20340;-90
2022/04/11 02:31:45;;;;;;;1.77;1.25;;;9.90;55.00;;;;;;5016369;28;20115;-91
2022/04/11 02:34:11;;;;;;;2.05;1.70;;;9.80;55.10;;;;;;5016365;28;20073;-90
2022/04/11 02:36:36;;;;;;;1.77;1.45;;;9.80;55.30;;;;;;5015265;28;20037;-90
2022/04/11 02:39:02;;;;;;;2.28;1.73;;;9.70;55.50;;;;;;5015981;28;20040;-90
2022/04/11 02:41:27;;;;;;;2.90;2.03;;;9.70;55.80;;;;;;5015976;28;20018;-92
2022/04/11 02:43:53;;;;;;;1.63;1.30;;;9.70;55.60;;;;;;5002586;28;20034;-89
2022/04/11 02:46:19;;;;;;;4.45;1.65;;;9.70;55.70;;;;;;4996585;28;20027;-88
2022/04/11 02:48:44;;;;;;;2.55;1.55;;;9.70;55.60;;;;;;5013156;28;20029;-90
2022/04/11 02:51:10;;;;;;;1.88;1.50;;;9.60;55.80;;;;;;5016261;28;20045;-90
2022/04/11 02:53:35;;;;;;;2.30;1.50;;;9.60;55.90;;;;;;5014839;28;20022;-90
2022/04/11 02:56:01;;;;;;;2.15;1.80;;;9.50;56.00;;;;;;5016109;28;20033;-88
2022/04/11 02:58:27;;;;;;;2.33;1.52;;;9.60;56.30;;;;;;5015608;28;20022;-88
2022/04/11 03:00:52;;;;;;;2.47;1.88;;;9.50;56.30;;;;;;5047506;28;20061;-90
2022/04/11 03:03:18;;;;;;;1.85;1.70;;;9.50;56.20;;;;;;5016225;28;20112;-89
2022/04/11 03:05:44;;;;;;;3.45;1.50;;;9.50;56.50;;;;;;5015827;28;20060;-90
2022/04/11 03:08:09;;;;;;;2.28;1.75;;;9.50;56.50;;;;;;5015912;28;20030;-90
2022/04/11 03:10:35;;;;;;;2.13;1.60;;;9.40;56.40;;;;;;5016139;28;20029;-90
2022/04/11 03:13:01;;;;;;;2.38;1.58;;;9.40;56.50;;;;;;4998366;28;20034;-90
2022/04/11 03:15:26;;;;;;;1.55;1.33;;;9.30;56.70;;;;;;5014078;28;20034;-90
2022/04/11 03:17:52;;;;;;;2.45;1.38;;;9.20;57.10;;;;;;5016365;28;20030;-91
2022/04/11 03:20:18;;;;;;;2.95;1.80;;;9.20;57.40;;;;;;5015715;28;20046;-90
2022/04/11 03:22:44;;;;;;;1.98;1.15;;;9.20;57.30;;;;;;5020059;28;20121;-91
2022/04/11 03:25:09;;;;;;;2.95;1.80;;;9.20;57.30;;;;;;5019757;28;20029;-88
2022/04/11 03:27:35;;;;;;;1.83;1.25;;;9.20;57.40;;;;;;5008422;28;20038;-90
2022/04/11 03:30:01;;;;;;;1.60;1.30;;;9.20;57.20;;;;;;4999681;28;20034;-90
2022/04/11 03:32:26;;;;;;;2.13;1.58;;;9.20;57.20;;;;;;5000655;28;20046;-91
2022/04/11 03:34:52;;;;;;;2.80;1.70;;;9.20;57.30;;;;;;4999976;28;20026;-88
2022/04/11 03:37:18;;;;;;;1.98;1.60;;;9.20;57.50;;;;;;4999933;28;20457;-89
2022/04/11 03:39:44;;;;;;;2.70;1.65;;;9.20;57.60;;;;;;5018749;28;20089;-89
2022/04/11 03:42:09;;;;;;;2.83;1.92;;;9.20;57.60;;;;;;5019363;28;20473;-89
2022/04/11 03:44:35;;;;;;;1.73;1.50;;;9.20;57.70;;;;;;5019822;28;20104;-90
2022/04/11 03:47:01;;;;;;;1.95;1.27;;;9.10;57.80;;;;;;5019159;28;20061;-88
2022/04/11 03:49:27;;;;;;;1.90;1.50;;;9.20;57.70;;;;;;5019199;28;20030;-90
2022/04/11 03:51:53;;;;;;;2.40;1.67;;;9.10;57.90;;;;;;5019621;28;20041;-90
2022/04/11 03:54:19;;;;;;;2.45;1.70;;;9.10;57.90;;;;;;5009106;28;20026;-88
2022/04/11 03:56:44;;;;;;;1.58;1.48;;;9.20;57.90;;;;;;4999551;28;20048;-88
2022/04/11 03:59:10;;;;;;;2.58;1.70;;;9.10;57.70;;;;;;5018304;28;20112;-88
2022/04/11 04:01:36;;;;;;;1.33;1.23;;;9.10;57.90;;;;;;5019311;28;20033;-89
2022/04/11 04:04:02;;;;;;;1.85;1.45;;;9.00;58.00;;;;;;5018240;28;20037;-90
2022/04/11 04:06:29;;;;;;;1.30;1.15;;;9.00;58.00;;;;;;4999393;28;20082;-88
2022/04/11 04:08:54;;;;;;;2.35;1.80;;;9.00;58.40;;;;;;4999084;28;20019;-89
2022/04/11 04:11:20;;;;;;;3.38;1.75;;;9.10;58.30;;;;;;5004904;28;20052;-89
2022/04/11 04:13:45;;;;;;;1.08;0.82;;;9.00;58.10;;;;;;5017720;28;20014;-89
2022/04/11 04:16:11;;;;;;;2.10;1.70;;;9.00;58.10;;;;;;5019135;28;20108;-89
2022/04/11 04:18:37;;;;;;;2.08;1.80;;;9.10;58.00;;;;;;5007033;28;20029;-90
2022/04/11 04:21:02;;;;;;;1.65;1.33;;;9.10;58.20;;;;;;5030779;28;20032;-89
2022/04/11 04:23:28;;;;;;;1.77;1.35;;;9.10;57.80;;;;;;4999398;28;20794;-91
2022/04/11 04:25:54;;;;;;;2.20;1.58;;;9.10;57.80;;;;;;4998749;28;20022;-89
2022/04/11 04:28:20;;;;;;;1.70;1.50;;;9.00;57.90;;;;;;5031399;28;20031;-88
2022/04/11 04:30:45;;;;;;;2.03;1.33;;;9.00;58.00;;;;;;4999275;28;20037;-88
2022/04/11 04:33:12;;;;;;;2.67;1.30;;;9.00;58.10;;;;;;4999347;28;20041;-90
2022/04/11 04:35:38;;;;;;;1.58;1.45;;;9.00;57.90;;;;;;4999151;28;20619;-89
2022/04/11 04:38:04;;;;;;;2.42;1.38;;;9.00;58.10;;;;;;4999001;28;20030;-90
2022/04/11 04:40:30;;;;;;;2.90;1.67;;;9.00;58.20;;;;;;5004309;28;20026;-89
2022/04/11 04:42:55;;;;;;;3.70;1.77;;;8.90;58.00;;;;;;5018685;28;20072;-90
2022/04/11 04:45:23;;;;;;;2.10;1.55;;;9.00;58.30;;;;;;5017802;28;20049;-89
2022/04/11 04:47:49;;;;;;;1.95;1.25;;;9.00;58.20;;;;;;5017160;28;20053;-90
2022/04/11 04:50:14;;;;;;;1.52;1.00;;;9.00;58.20;;;;;;5049829;28;20033;-89
2022/04/11 04:52:40;;;;;;;1.63;1.45;;;9.00;58.30;;;;;;5018461;28;20499;-90
2022/04/11 04:55:07;;;;;;;1.50;1.27;;;9.00;58.10;;;;;;5018084;28;20033;-84
2022/04/11 04:57:33;;;;;;;1.65;1.40;;;8.90;58.40;;;;;;5017759;28;20026;-88
2022/04/11 04:59:58;;;;;;;3.03;1.90;;;8.90;58.30;;;;;;5017116;28;20038;-82
2022/04/11 05:02:24;;;;;;;1.60;1.38;;;8.90;58.50;;;;;;5046452;28;20030;-87
2022/04/11 05:04:50;;;;;;;2.60;1.42;;;8.80;58.50;;;;;;5017244;28;20501;-86
2022/04/11 05:07:15;;;;;;;2.30;1.20;;;8.90;58.50;;;;;;5017197;28;20029;-86
2022/04/11 05:09:41;;;;;;;2.22;1.70;;;8.80;58.50;;;;;;5017608;28;20484;-88
2022/04/11 05:12:07;;;;;;;2.55;1.40;;;8.80;58.60;;;;;;5017314;28;20087;-90
2022/04/11 05:14:33;;;;;;;1.20;1.10;;;8.80;58.60;;;;;;5014817;28;20034;-90
2022/04/11 05:16:58;;;;;;;2.90;2.13;;;8.80;58.50;;;;;;4997749;28;21190;-88
2022/04/11 05:19:24;;;;;;;1.70;1.40;;;8.80;58.50;;;;;;4998299;28;20117;-81
2022/04/11 05:21:50;;;;;;;1.90;1.60;;;8.80;58.30;;;;;;5016845;28;20072;-84
2022/04/11 05:24:15;;;;;;;2.58;1.27;;;8.90;58.20;;;;;;5011656;28;20090;-81
2022/04/11 05:26:41;;;;;;;2.55;2.35;;;8.90;58.20;;;;;;4997272;28;20097;-81
2022/04/11 05:29:07;;;;;;;1.73;1.38;;;9.00;58.20;;;;;;5003542;28;20620;-87
2022/04/11 05:50:53;;;;;;;1.42;1.05;;;7.90;61.90;;;;;;5082571;28;20403;-91
2022/04/11 05:53:19;;;;;;;2.83;1.70;;;7.90;62.10;;;;;;5079220;28;20052;-90
2022/04/11 05:55:44;;;;;;;1.60;1.20;;;8.20;61.30;;;;;;5061079;28;20029;-89
2022/04/11 05:58:10;;;;;;;1.58;1.45;;;8.40;60.40;;;;;;5062956;28;20055;-88
2022/04/11 06:00:36;;;;;;;2.45;1.55;;;8.70;59.50;;;;;;5061728;28;20139;-88
2022/04/11 06:03:01;;;;;;;2.35;1.40;;;8.80;58.90;;;;;;5062676;28;20074;-81
2022/04/11 06:05:27;;;;;;;1.27;1.02;;;8.90;58.50;;;;;;5045803;28;20032;-89
2022/04/11 06:07:53;;;;;;;1.92;1.50;;;8.90;58.20;;;;;;5057085;28;20168;-87
2022/04/11 06:10:18;;;;;;;2.10;1.80;;;9.00;58.00;;;;;;5065221;28;20060;-87
2022/04/11 06:12:44;;;;;;;2.35;1.63;;;9.00;57.90;;;;;;5056478;28;20056;-81
2022/04/11 06:15:11;;;;;;;3.88;1.70;;;9.00;57.90;;;;;;5049795;28;20034;-83
2022/04/11 06:17:37;;;;;;;1.80;1.40;;;9.10;57.40;;;;;;5046265;28;20116;-83
2022/04/11 06:20:03;;;;;;;2.38;1.77;;;9.20;57.30;;;;;;5070566;28;20078;-83
2022/04/11 06:22:29;;;;;;;3.03;1.83;;;9.30;57.20;;;;;;5070756;28;20923;-83
2022/04/11 06:25:01;;;;;;;1.17;1.08;;;9.30;57.40;;;;;;5082528;28;20025;-81
2022/04/11 06:27:27;;;;;;;1.67;1.58;;;9.30;56.90;;;;;;5056012;28;20761;-83
2022/04/11 06:29:56;;;;;;;1.27;1.10;;;9.30;56.70;;;;;;5076028;28;20144;-83
2022/04/11 06:32:30;;;;;;;3.47;2.13;;;9.40;56.80;;;;;;5081987;28;20044;-82
2022/04/11 06:34:56;;;;;;;2.55;1.70;;;9.40;56.20;;;;;;5090139;28;20027;-86
2022/04/11 06:37:23;;;;;;;3.78;1.30;;;9.50;56.60;;;;;;5051112;28;20053;-86
2022/04/11 06:39:53;;;;;;;2.78;1.63;;;9.60;56.00;;;;;;5051286;28;20025;-88
2022/04/11 06:42:18;;;;;;;1.50;1.20;;;9.70;55.70;;;;;;5067424;28;20560;-88
2022/04/11 06:44:44;;;;;;;1.65;1.40;;;9.70;55.00;;;;;;5077267;28;20449;-86
2022/04/11 06:47:10;;;;;;;1.70;1.27;;;9.80;54.90;;;;;;5054811;28;20126;-86
2022/04/11 06:49:36;;;;;;;3.08;2.05;;;9.80;55.20;;;;;;5053151;28;20064;-88
2022/04/11 06:52:02;;;;;;;1.63;1.40;;;9.80;55.30;;;;;;5051336;28;20100;-87
2022/04/11 06:54:28;;;;;;;1.77;1.50;;;9.80;54.80;;;;;;5051068;28;20025;-87
2022/04/11 06:56:53;;;;;;;3.92;1.00;;;9.90;55.10;;;;;;5043399;28;20022;-87
2022/04/11 06:59:19;;;;;;;3.00;1.63;;;10.00;54.60;;;;;;5055849;28;20037;-83
2022/04/11 07:01:45;;;;;;;2.80;1.48;;;10.00;54.70;;;;;;5059290;28;20032;-86
2022/04/11 07:04:11;;;;;;;3.80;1.65;;;10.10;54.20;;;;;;5039249;28;20132;-86
2022/04/11 07:06:36;;;;;;;2.08;1.38;;;10.20;54.10;;;;;;5057968;28;20055;-85
2022/04/11 07:09:02;;;;;;;1.35;1.05;;;10.20;54.00;;;;;;5043939;28;20075;-85
2022/04/11 07:11:31;;;;;;;1.48;1.35;;;10.30;53.70;;;;;;5040206;28;20021;-83
2022/04/11 07:13:57;;;;;;;2.88;1.67;;;10.40;53.50;;;;;;5058391;28;20041;-84
2022/04/11 07:16:24;;;;;;;3.38;1.80;;;10.60;53.10;;;;;;5037618;28;20027;-87
2022/04/11 07:18:50;;;;;;;2.05;1.67;;;10.80;52.70;;;;;;5037790;28;20033;-83
2022/04/11 07:21:16;;;;;;;1.13;1.00;;;11.40;51.50;;;;;;5037429;28;20338;-86
2022/04/11 07:23:41;;;;;;;1.98;1.20;;;11.80;49.80;;;;;;5037103;28;20079;-85
2022/04/11 07:26:07;;;;;;;1.60;1.40;;;12.30;48.90;;;;;;5043746;28;20187;-86
2022/04/11 07:28:33;;;;;;;1.50;1.40;;;12.80;47.50;;;;;;5056771;28;20479;-86
2022/04/11 07:30:58;;;;;;;2.03;1.08;;;13.20;46.90;;;;;;5043004;28;20032;-86
2022/04/11 07:33:24;;;;;;;2.63;1.27;;;13.60;44.80;;;;;;5037212;28;20026;-86
2022/04/11 07:35:49;;;;;;;4.03;1.40;;;14.00;44.00;;;;;;5036963;28;20021;-86
2022/04/11 07:38:15;;;;;;;1.30;1.00;;;14.70;42.50;;;;;;5035935;28;20025;-85
2022/04/11 07:40:41;;;;;;;2.80;1.52;;;16.70;38.70;;;;;;5045185;28;20029;-86
2022/04/11 07:43:06;;;;;;;1.92;1.50;;;17.80;36.50;;;;;;5037132;28;20018;-86
2022/04/11 07:45:32;;;;;;;1.73;1.00;;;19.20;34.40;;;;;;5036644;28;20075;-87
2022/04/11 07:47:58;;;;;;;1.73;1.10;;;20.40;31.70;;;;;;5039942;28;20044;-87
2022/04/11 07:50:23;;;;;;;2.28;1.10;;;20.80;31.90;;;;;;5036941;28;20407;-87
2022/04/11 07:52:49;;;;;;;3.85;1.20;;;20.30;31.30;;;;;;5036872;28;20021;-86
2022/04/11 07:55:15;;;;;;;2.35;1.02;;;20.90;31.30;;;;;;5036441;28;20033;-87
2022/04/11 07:57:41;;;;;;;2.13;1.20;;;21.20;30.30;;;;;;5035719;28;20061;-86
2022/04/11 08:00:08;;;;;;;1.63;1.00;;;22.50;29.20;;;;;;5042432;28;20033;-87
2022/04/11 08:02:35;;;;;;;3.25;1.42;;;23.70;27.30;;;;;;5036632;28;20021;-87
2022/04/11 08:05:02;;;;;;;3.80;1.40;;;23.90;26.60;;;;;;5036867;28;20059;-87
2022/04/11 08:07:32;;;;;;;1.42;1.10;;;23.30;27.30;;;;;;5026547;28;20083;-87
2022/04/11 08:09:59;;;;;;;2.78;1.25;;;22.30;28.70;;;;;;5036585;28;20021;-86
2022/04/11 08:12:25;;;;;;;1.75;1.30;;;22.00;29.10;;;;;;5051379;28;20105;-88
2022/04/11 08:14:51;;;;;;;4.22;1.38;;;22.30;28.60;;;;;;5040345;28;20069;-87
2022/04/11 08:17:16;;;;;;;2.90;1.55;;;22.80;27.40;;;;;;5036564;28;20053;-87
2022/04/11 08:19:42;;;;;;;2.45;1.00;;;23.30;26.80;;;;;;5035225;28;20734;-89
2022/04/11 08:22:08;;;;;;;2.65;1.30;;;23.60;27.20;;;;;;5039467;28;20513;-88
2022/04/11 08:24:33;;;;;;;2.58;1.27;;;23.60;26.20;;;;;;5055924;28;20545;-86
2022/04/11 08:26:59;;;;;;;2.33;1.25;;;23.70;26.70;;;;;;5055786;28;20029;-86
2022/04/11 08:29:28;;;;;;;2.50;1.15;;;22.30;28.90;;;;;;5038170;28;20151;-87
2022/04/11 08:31:53;;;;;;;1.58;1.23;;;22.10;29.90;;;;;;5043135;28;20457;-87
2022/04/11 08:34:19;;;;;;;2.28;1.30;;;23.20;28.10;;;;;;5035787;28;20033;-88
2022/04/11 08:36:45;;;;;;;3.13;1.33;;;23.40;27.60;;;;;;5035983;28;20037;-86
2022/04/11 08:39:11;;;;;;;1.60;0.95;;;24.00;26.70;;;;;;5036415;28;20407;-88
2022/04/11 08:41:37;;;;;;;2.58;1.52;;;22.80;28.10;;;;;;5035961;28;20031;-85
2022/04/11 08:44:05;;;;;;;3.15;1.20;;;20.90;30.90;;;;;;5017295;28;20022;-86
2022/04/11 08:46:34;;;;;;;1.75;1.30;;;19.30;33.40;;;;;;5035614;28;20021;-86
2022/04/11 08:49:02;;;;;;;3.33;1.67;;;19.70;33.90;;;;;;5055168;28;20080;-86
2022/04/11 08:51:31;;;;;;;2.45;1.65;;;19.00;35.80;;;;;;5033334;28;20052;-87
2022/04/11 08:54:00;;;;;;;2.77;1.60;;;21.20;32.40;;;;;;5035898;28;20151;-87
2022/04/11 08:56:29;;;;;;;2.65;1.48;;;22.30;30.50;;;;;;5035520;28;20797;-88
2022/04/11 08:58:55;;;;;;;1.95;1.40;;;22.80;30.40;;;;;;5037119;28;20042;-87
2022/04/11 09:01:21;;;;;;;2.15;1.40;;;23.30;29.30;;;;;;5055200;28;20028;-87
2022/04/11 09:03:48;;;;;;;3.05;1.50;;;23.30;29.00;;;;;;5055546;28;20059;-87
2022/04/11 09:06:15;;;;;;;3.80;1.30;;;21.70;31.50;;;;;;5047459;28;20637;-87
2022/04/11 09:08:50;;;;;;;3.50;1.60;;;21.90;31.20;;;;;;5017897;28;20678;-88
2022/04/11 09:11:35;;;;;;;4.15;1.50;;;22.80;31.00;;;;;;5042261;28;20530;-88
2022/04/11 09:14:10;;;;;;;2.50;1.27;;;23.10;29.90;;;;;;5033309;28;20128;-87
2022/04/11 09:16:49;;;;;;;3.67;1.20;;;22.90;29.60;;;;;;5035209;28;20049;-87
2022/04/11 09:19:24;;;;;;;2.78;1.70;;;22.80;30.20;;;;;;5053459;28;20032;-86
2022/04/11 09:21:54;;;;;;;1.60;1.30;;;23.30;30.80;;;;;;5044226;28;20045;-87
2022/04/11 09:24:22;;;;;;;2.50;1.27;;;23.80;30.00;;;;;;5034903;28;20025;-88
2022/04/11 09:26:55;;;;;;;1.83;1.53;;;24.50;29.00;;;;;;5017575;28;20075;-88
2022/04/11 09:29:21;;;;;;;4.50;1.70;;;24.00;29.50;;;;;;5035287;28;20265;-88
2022/04/11 09:31:47;;;;;;;3.35;0.95;;;24.30;29.80;;;;;;5035085;28;20038;-87
2022/04/11 09:34:25;;;;;;;3.10;1.50;;;23.50;29.90;;;;;;5034911;28;20033;-88
2022/04/11 09:36:56;;;;;;;2.22;1.00;;;22.40;32.20;;;;;;5034472;28;20032;-87
2022/04/11 09:39:33;;;;;;;3.05;1.60;;;20.90;34.50;;;;;;5034771;28;20033;-86
2022/04/11 09:41:59;;;;;;;2.63;1.40;;;20.80;35.00;;;;;;5034836;28;20116;-86
2022/04/11 09:44:35;;;;;;;3.33;1.27;;;20.90;35.60;;;;;;5035005;28;20053;-85
2022/04/11 09:47:03;;;;;;;2.22;1.42;;;21.40;34.50;;;;;;5037489;28;20044;-87
2022/04/11 09:49:29;;;;;;;4.22;1.50;;;22.60;34.40;;;;;;5032817;28;20056;-87
2022/04/11 09:52:08;;;;;;;1.90;0.93;;;23.10;31.60;;;;;;5034520;28;20104;-86
2022/04/11 09:54:57;;;;;;;2.53;1.38;;;22.30;32.80;;;;;;5034770;28;20029;-88
2022/04/11 09:57:26;;;;;;;4.38;1.40;;;22.70;32.70;;;;;;5034882;28;20029;-88
2022/04/11 09:59:54;;;;;;;2.00;1.33;;;23.00;32.40;;;;;;5025931;28;20026;-87
2022/04/11 10:02:22;;;;;;;2.05;1.20;;;23.20;32.00;;;;;;5051306;28;20025;-88
2022/04/11 10:04:49;;;;;;;2.55;1.35;;;22.70;33.30;;;;;;5066393;28;20031;-85
2022/04/11 10:07:15;;;;;;;2.63;1.20;;;23.30;33.00;;;;;;5056964;28;20029;-87
2022/04/11 10:09:43;;;;;;;4.30;1.70;;;23.30;32.50;;;;;;5039844;28;20034;-86
2022/04/11 10:12:09;;;;;;;2.10;1.30;;;23.80;32.80;;;;;;5052405;28;20071;-87
2022/04/11 10:14:34;;;;;;;3.72;1.60;;;23.80;31.50;;;;;;5054466;28;20019;-87
2022/04/11 10:17:02;;;;;;;2.42;1.77;;;23.80;33.20;;;;;;5053865;28;20108;-86
2022/04/11 10:19:29;;;;;;;2.28;1.15;;;23.90;32.30;;;;;;5074687;28;20091;-86
2022/04/11 10:22:25;;;;;;;4.07;1.70;;;22.40;34.60;;;;;;5074515;28;20017;-86
2022/04/11 10:25:07;;;;;;;3.42;1.50;;;22.20;34.80;;;;;;5046327;28;20029;-88
2022/04/11 10:27:34;;;;;;;1.77;1.08;;;21.20;36.90;;;;;;5051499;28;20048;-86
2022/04/11 10:30:02;;;;;;;3.70;1.50;;;20.70;39.10;;;;;;5049207;28;20395;-84
2022/04/11 10:32:30;;;;;;;2.25;1.42;;;20.60;39.40;;;;;;5043284;28;20035;-85
2022/04/11 10:35:09;;;;;;;4.25;1.70;;;20.60;39.60;;;;;;5063176;28;20020;-85
2022/04/11 10:37:41;;;;;;;5.60;1.73;;;20.00;40.80;;;;;;5049627;28;20048;-83
2022/04/11 10:40:15;;;;;;;4.07;1.60;;;19.80;41.70;;;;;;5068421;28;20074;-84
2022/04/11 10:43:11;;;;;;;2.50;1.23;;;19.50;42.50;;;;;;5062840;28;20115;-84
2022/04/11 10:46:07;;;;;;;2.40;1.38;;;19.20;42.80;;;;;;5063477;28;20020;-81
2022/04/11 10:48:57;;;;;;;3.08;1.50;;;19.20;43.40;;;;;;5041176;28;20033;-89
2022/04/11 10:51:23;;;;;;;;;;;19.30;43.50;;;;;;5053545;28;20047;-86
2022/04/11 10:54:18;;;;;;;5.85;2.92;;;19.60;43.60;;;;;;5036624;28;19909;-83
2022/04/11 10:56:51;;;;;;;2.95;1.35;;;19.60;43.80;;;;;;5036925;28;20061;-87
2022/04/11 10:59:28;;;;;;;2.75;1.25;;;19.60;44.30;;;;;;5042858;28;20040;-91
2022/04/11 11:01:55;;;;;;;3.13;1.52;;;19.80;44.70;;;;;;5057575;28;20037;-89
2022/04/11 11:04:22;;;;;;;3.08;1.48;;;19.80;43.10;;;;;;5037372;28;20045;-90
2022/04/11 11:07:08;;;;;;;2.20;1.35;;;19.80;44.10;;;;;;5053473;28;20047;-91
2022/04/11 11:09:40;;;;;;;2.30;1.38;;;19.70;43.80;;;;;;5039394;28;20025;-90
2022/04/11 11:12:22;;;;;;;3.13;1.70;;;19.80;44.10;;;;;;5039225;28;20036;-86
2022/04/11 11:14:48;;;;;;;2.67;1.40;;;19.80;44.60;;;;;;5039870;28;20408;-89
2022/04/11 11:17:13;;;;;;;2.58;1.60;;;19.80;44.80;;;;;;5046389;28;20034;-89
2022/04/11 11:20:02;;;;;;;3.05;1.60;;;20.10;45.40;;;;;;5019858;28;20034;-83
2022/04/11 11:22:54;;;;;;;2.60;1.37;;;20.10;44.70;;;;;;5037325;28;20090;-81
2022/04/11 11:25:20;;;;;;;3.45;1.77;;;20.20;44.90;;;;;;5038689;28;20047;-78
2022/04/11 11:27:47;;;;;;;3.50;1.60;;;19.80;44.20;;;;;;5039409;28;20112;-82
2022/04/11 11:30:16;;;;;;;5.28;1.67;;;19.90;44.60;;;;;;5037637;28;20029;-77
2022/04/11 11:32:42;;;;;;;4.53;1.65;;;20.00;45.40;;;;;;5048149;28;20124;-82
2022/04/11 11:35:09;;;;;;;3.47;1.60;;;20.10;44.70;;;;;;5053353;28;20108;-83
2022/04/11 11:37:35;;;;;;;3.72;2.55;;;20.30;44.80;;;;;;5053600;28;20570;-84
2022/04/11 11:40:03;;;;;;;6.70;1.55;;;20.30;44.40;;;;;;5065197;28;20145;-84
2022/04/11 11:42:35;;;;;;;2.65;1.73;;;20.50;45.30;;;;;;5061011;28;20036;-79
2022/04/11 11:45:01;;;;;;;2.58;1.63;;;20.60;45.20;;;;;;5043956;28;20061;-79
2022/04/11 11:47:28;;;;;;;5.80;1.65;;;20.40;44.00;;;;;;5041141;28;20544;-79
2022/04/11 11:50:07;;;;;;;3.53;1.65;;;20.60;44.90;;;;;;5049285;28;20393;-79
2022/04/11 11:52:33;;;;;;;5.47;1.70;;;20.60;44.90;;;;;;5054676;28;20040;-79
2022/04/11 11:55:00;;;;;;;4.07;1.88;;;20.70;43.90;;;;;;5050789;28;20112;-78
2022/04/11 11:57:28;;;;;;;6.50;1.92;;;20.60;44.60;;;;;;5030573;28;20025;-79
2022/04/11 11:59:59;;;;;;;5.85;2.25;;;20.60;44.70;;;;;;5053715;28;20025;-79
2022/04/11 12:05:25;;;;;;;6.38;1.90;;;20.70;44.60;;;;;;5054544;28;20031;-78
2022/04/11 12:08:13;;;;;;;4.32;1.60;;;20.50;45.40;;;;;;5062678;28;20021;-79
2022/04/11 12:10:47;;;;;;;3.83;1.65;;;20.40;45.30;;;;;;5037617;28;20105;-79
2022/04/11 12:13:45;;;;;;;3.25;1.42;;;20.50;45.20;;;;;;5050772;28;20457;-79
2022/04/11 12:16:17;;;;;;;3.10;1.60;;;20.60;45.50;;;;;;4985327;28;20040;-80
2022/04/11 12:18:47;;;;;;;4.57;1.80;;;20.60;46.00;;;;;;5036235;28;20072;-79
2022/04/11 12:21:13;;;;;;;8.13;2.30;;;20.60;45.10;;;;;;5047295;28;20056;-79
2022/04/11 12:23:47;;;;;;;4.97;1.63;;;20.80;45.80;;;;;;5045311;28;20040;-79
2022/04/11 12:26:23;;;;;;;4.55;1.73;;;20.80;46.00;;;;;;5035281;28;20021;-80
2022/04/11 12:28:48;;;;;;;5.13;1.67;;;21.10;45.50;;;;;;5018030;28;20040;-79
2022/04/11 12:31:17;;;;;;;5.60;1.90;;;21.10;45.20;;;;;;5034716;28;20081;-79
2022/04/11 12:33:46;;;;;;;4.82;2.00;;;21.30;45.40;;;;;;5036093;28;20116;-79
2022/04/11 12:36:16;;;;;;;5.78;1.88;;;21.40;44.60;;;;;;5036207;28;20022;-79
2022/04/11 12:38:43;;;;;;;;;;;21.60;44.50;;;;;;5035255;28;20025;-79
2022/04/11 12:41:36;;;;;;;5.32;1.65;;;21.20;45.90;;;;;;5036246;28;19994;-79
2022/04/11 12:44:07;;;;;;;2.53;1.52;;;21.50;46.50;;;;;;5027180;28;20718;-79
2022/04/11 12:46:34;;;;;;;6.68;1.70;;;21.20;45.20;;;;;;5035104;28;20124;-79
2022/04/11 12:49:01;;;;;;;4.38;2.10;;;21.30;45.40;;;;;;5055107;28;20160;-79
2022/04/11 12:51:28;;;;;;;6.50;2.15;;;21.30;45.30;;;;;;5037858;28;20101;-79
2022/04/11 12:54:09;;;;;;;7.43;2.03;;;21.20;45.10;;;;;;5051456;28;20036;-79
2022/04/11 12:56:41;;;;;;;7.05;2.05;;;21.30;45.50;;;;;;5035905;28;20064;-79
2022/04/11 12:59:08;;;;;;;2.85;1.38;;;21.50;46.30;;;;;;5037834;28;20491;-79
2022/04/11 13:02:09;;;;;;;5.43;1.83;;;21.40;45.70;;;;;;5055499;28;20083;-79
2022/04/11 13:04:43;;;;;;;5.47;2.08;;;21.20;45.90;;;;;;5053877;28;20070;-79
2022/04/11 13:07:10;;;;;;;4.00;1.58;;;21.20;47.30;;;;;;5055484;28;20017;-79
2022/04/11 13:09:37;;;;;;;6.60;2.20;;;21.10;46.80;;;;;;5055404;28;20134;-79
2022/04/11 13:12:06;;;;;;;4.15;1.63;;;21.10;46.70;;;;;;5046772;28;20389;-81
2022/04/11 13:14:32;;;;;;;6.10;2.13;;;20.90;46.60;;;;;;5017575;28;20033;-81
2022/04/11 13:19:42;;;;;;;7.63;1.90;;;21.10;47.20;;;;;;5042225;28;20060;-78